6hr Temperature Data

Temp.
(°C)
Wind Chill
(°C)
Dew Point
(°C)
Solar Hours
(hh:mm)
Solar Radiation
(w/m2)
Min
3.4 0.8 -111.7 00:00 0.0
Max
8.4 7 -111.2 00:00 0.0
Range
5 6.2 0.5 n/a 0
Mode
3.8 6.4 -111.6 00:00 0.0
Median
5.4 3.9 -111.5 00:00 0.0
Mean
5.5 4.1 -111.4 n/a 0
Std. Dev
1.6 2 5.9 n/a 0
Temp.
(°C)
Wind Chill
(°C)
Dew Point
(°C)
Solar Hours
(hh:mm)
Solar Radiation
(w/m2)
18/01 12:22 8.4 6.9 -111.2 00:00 0.0
18/01 12:21 8.2 6.6 -111.2 00:00 0.0
18/01 12:20 8.2 6.6 -111.2 00:00 0.0
18/01 12:19 8.2 6.6 -111.2 00:00 0.0
18/01 12:18 8.2 6.6 -111.2 00:00 0.0
18/01 12:17 8.0 6.4 -111.2 00:00 0.0
18/01 12:16 8.0 6.4 -111.2 00:00 0.0
18/01 12:15 8.2 6.6 -111.2 00:00 0.0
18/01 12:14 8.0 6.3 -111.2 00:00 0.0
18/01 12:13 8.0 6.3 -111.2 00:00 0.0
18/01 12:12 8.0 6.3 -111.2 00:00 0.0
18/01 12:11 8.2 6.5 -111.2 00:00 0.0
18/01 12:10 8.2 6.5 -111.2 00:00 0.0
18/01 12:09 8.0 6.2 -111.2 00:00 0.0
18/01 12:08 8.0 6.2 -111.2 00:00 0.0
18/01 12:07 8.0 6.3 -111.2 00:00 0.0
18/01 12:06 8.0 6.3 -111.2 00:00 0.0
18/01 12:05 8.0 6.3 -111.2 00:00 0.0
18/01 12:04 8.0 6.3 -111.2 00:00 0.0
18/01 12:03 8.0 6.3 -111.2 00:00 0.0
18/01 12:02 7.8 6.1 -111.2 00:00 0.0
18/01 12:01 7.8 6.1 -111.2 00:00 0.0
18/01 12:00 8.0 6.4 -111.2 00:00 0.0
18/01 11:59 8.0 6.4 -111.2 00:00 0.0
18/01 11:58 8.0 6.5 -111.2 00:00 0.0
18/01 11:57 8.0 6.5 -111.2 00:00 0.0
18/01 11:56 7.8 6.3 -111.2 00:00 0.0
18/01 11:55 7.8 6.3 -111.2 00:00 0.0
18/01 11:54 7.8 6.3 -111.2 00:00 0.0
18/01 11:53 7.8 6.3 -111.2 00:00 0.0
18/01 11:52 7.8 6.4 -111.2 00:00 0.0
18/01 11:51 7.8 6.5 -111.2 00:00 0.0
18/01 11:50 7.8 6.5 -111.2 00:00 0.0
18/01 11:49 7.8 6.5 -111.2 00:00 0.0
18/01 11:48 7.8 6.6 -111.2 00:00 0.0
18/01 11:47 7.8 6.6 -111.2 00:00 0.0
18/01 11:46 7.8 6.6 -111.2 00:00 0.0
18/01 11:45 7.8 6.6 -111.2 00:00 0.0
18/01 11:44 7.6 6.4 -111.2 00:00 0.0
18/01 11:43 7.6 6.4 -111.2 00:00 0.0
18/01 11:42 7.6 6.4 -111.2 00:00 0.0
18/01 11:41 7.8 6.6 -111.2 00:00 0.0
18/01 11:40 7.8 6.6 -111.2 00:00 0.0
18/01 11:39 7.6 6.3 -111.2 00:00 0.0
18/01 11:38 7.6 6.3 -111.2 00:00 0.0
18/01 11:37 7.6 6.2 -111.2 00:00 0.0
18/01 11:36 7.6 6.2 -111.2 00:00 0.0
18/01 11:35 7.6 6.2 -111.2 00:00 0.0
18/01 11:34 7.6 6.2 -111.2 00:00 0.0
18/01 11:33 7.6 6.2 -111.2 00:00 0.0
18/01 11:32 7.6 6.2 -111.2 00:00 0.0
18/01 11:31 7.6 6.2 -111.2 00:00 0.0
18/01 11:30 7.6 6.3 -111.2 00:00 0.0
18/01 11:29 7.4 6 -111.3 00:00 0.0
18/01 11:28 7.4 6.1 -111.3 00:00 0.0
18/01 11:27 7.6 6.4 -111.2 00:00 0.0
18/01 11:26 7.6 6.4 -111.2 00:00 0.0
18/01 11:25 7.6 6.4 -111.2 00:00 0.0
18/01 11:24 7.6 6.5 -111.2 00:00 0.0
18/01 11:23 7.6 6.6 -111.2 00:00 0.0
18/01 11:22 7.6 6.6 -111.2 00:00 0.0
18/01 11:21 7.6 6.6 -111.2 00:00 0.0
18/01 11:20 7.4 6.4 -111.3 00:00 0.0
18/01 11:19 7.4 6.5 -111.3 00:00 0.0
18/01 11:18 7.4 6.5 -111.3 00:00 0.0
18/01 11:17 7.4 6.5 -111.3 00:00 0.0
18/01 11:16 7.4 6.6 -111.3 00:00 0.0
18/01 11:15 7.4 6.7 -111.3 00:00 0.0
18/01 11:14 7.4 6.7 -111.3 00:00 0.0
18/01 11:13 7.4 6.7 -111.3 00:00 0.0
18/01 11:12 7.6 7 -111.2 00:00 0.0
18/01 11:11 7.4 6.8 -111.3 00:00 0.0
18/01 11:10 7.4 6.8 -111.3 00:00 0.0
18/01 11:09 7.2 6.6 -111.3 00:00 0.0
18/01 11:08 7.4 6.8 -111.3 00:00 0.0
18/01 11:07 7.4 6.9 -111.3 00:00 0.0
18/01 11:06 7.2 6.7 -111.3 00:00 0.0
18/01 11:05 7.2 6.7 -111.3 00:00 0.0
18/01 11:04 7.4 6.9 -111.3 00:00 0.0
18/01 11:03 7.4 6.9 -111.3 00:00 0.0
18/01 11:02 7.4 6.9 -111.3 00:00 0.0
18/01 11:01 7.2 6.6 -111.3 00:00 0.0
18/01 11:00 7.2 6.5 -111.3 00:00 0.0
18/01 10:59 7.2 6.5 -111.3 00:00 0.0
18/01 10:58 7.4 6.7 -111.3 00:00 0.0
18/01 10:57 7.2 6.4 -111.3 00:00 0.0
18/01 10:56 7.2 6.4 -111.3 00:00 0.0
18/01 10:55 7.2 6.4 -111.3 00:00 0.0
18/01 10:54 7.2 6.4 -111.3 00:00 0.0
18/01 10:53 7.2 6.4 -111.3 00:00 0.0
18/01 10:52 7.2 6.4 -111.3 00:00 0.0
18/01 10:51 7.2 6.5 -111.3 00:00 0.0
18/01 10:50 7.0 6.2 -111.3 00:00 0.0
18/01 10:49 7.0 6.2 -111.3 00:00 0.0
18/01 10:48 7.0 6.2 -111.3 00:00 0.0
18/01 10:47 7.0 6.2 -111.3 00:00 0.0
18/01 10:46 7.0 6.3 -111.3 00:00 0.0
18/01 10:45 7.2 6.5 -111.3 00:00 0.0
18/01 10:44 7.0 6.3 -111.3 00:00 0.0
18/01 10:43 7.2 6.6 -111.3 00:00 0.0
18/01 10:42 7.0 6.5 -111.3 00:00 0.0
18/01 10:41 7.2 6.8 -111.3 00:00 0.0
18/01 10:40 7.2 6.8 -111.3 00:00 0.0
18/01 10:39 7.0 6.7 -111.3 00:00 0.0
18/01 10:38 6.8 6.6 -111.3 00:00 0.0
18/01 10:37 7.0 6.8 -111.3 00:00 0.0
18/01 10:36 7.0 6.8 -111.3 00:00 0.0
18/01 10:35 7.0 6.7 -111.3 00:00 0.0
18/01 10:34 7.2 7 -111.3 00:00 0.0
18/01 10:33 7.0 6.7 -111.3 00:00 0.0
18/01 10:32 7.0 6.7 -111.3 00:00 0.0
18/01 10:31 7.0 6.7 -111.3 00:00 0.0
18/01 10:30 6.8 6.5 -111.3 00:00 0.0
18/01 10:29 6.8 6.4 -111.3 00:00 0.0
18/01 10:28 6.8 6.4 -111.3 00:00 0.0
18/01 10:27 6.8 6.3 -111.3 00:00 0.0
18/01 10:26 6.8 6.3 -111.3 00:00 0.0
18/01 10:25 6.8 6.4 -111.3 00:00 0.0
18/01 10:24 6.8 6.3 -111.3 00:00 0.0
18/01 10:23 6.6 6.1 -111.3 00:00 0.0
18/01 10:22 6.6 6 -111.3 00:00 0.0
18/01 10:21 6.4 5.8 -111.4 00:00 0.0
18/01 10:20 6.4 5.7 -111.4 00:00 0.0
18/01 10:19 6.4 5.7 -111.4 00:00 0.0
18/01 10:18 6.4 5.6 -111.4 00:00 0.0
18/01 10:17 6.4 5.5 -111.4 00:00 0.0
18/01 10:16 6.4 5.5 -111.4 00:00 0.0
18/01 10:15 6.4 5.4 -111.4 00:00 0.0
18/01 10:14 6.4 5.4 -111.4 00:00 0.0
18/01 10:13 6.4 5.3 -111.4 00:00 0.0
18/01 10:12 6.2 5 -111.4 00:00 0.0
18/01 10:11 6.2 5 -111.4 00:00 0.0
18/01 10:10 6.2 5 -111.4 00:00 0.0
18/01 10:09 6.2 4.9 -111.4 00:00 0.0
18/01 10:08 6.2 5 -111.4 00:00 0.0
18/01 10:07 6.2 5 -111.4 00:00 0.0
18/01 10:06 6.2 5 -111.4 00:00 0.0
18/01 10:05 6.0 4.7 -111.4 00:00 0.0
18/01 10:04 6.0 4.7 -111.4 00:00 0.0
18/01 10:03 6.0 4.7 -111.4 00:00 0.0
18/01 10:02 5.8 4.5 -111.4 00:00 0.0
18/01 10:01 5.6 4.3 -111.4 00:00 0.0
18/01 10:00 5.8 4.5 -111.4 00:00 0.0
18/01 09:59 5.8 4.5 -111.4 00:00 0.0
18/01 09:58 5.6 4.3 -111.4 00:00 0.0
18/01 09:57 5.6 4.3 -111.4 00:00 0.0
18/01 09:56 5.6 4.3 -111.4 00:00 0.0
18/01 09:55 5.6 4.3 -111.4 00:00 0.0
18/01 09:54 5.6 4.2 -111.4 00:00 0.0
18/01 09:53 5.6 4.2 -111.4 00:00 0.0
18/01 09:52 5.6 4.2 -111.4 00:00 0.0
18/01 09:51 5.6 4.1 -111.4 00:00 0.0
18/01 09:50 5.6 4.1 -111.4 00:00 0.0
18/01 09:49 5.6 4.1 -111.4 00:00 0.0
18/01 09:48 5.6 4 -111.4 00:00 0.0
18/01 09:47 5.6 3.9 -111.4 00:00 0.0
18/01 09:46 5.6 3.9 -111.4 00:00 0.0
18/01 09:45 5.6 3.9 -111.4 00:00 0.0
18/01 09:44 5.6 3.8 -111.4 00:00 0.0
18/01 09:43 5.6 3.7 -111.4 00:00 0.0
18/01 09:42 5.6 3.7 -111.4 00:00 0.0
18/01 09:41 5.6 3.6 -111.4 00:00 0.0
18/01 09:40 5.6 3.5 -111.4 00:00 0.0
18/01 09:39 5.6 3.5 -111.4 00:00 0.0
18/01 09:38 5.6 3.5 -111.4 00:00 0.0
18/01 09:37 5.6 3.4 -111.4 00:00 0.0
18/01 09:36 5.6 3.3 -111.4 00:00 0.0
18/01 09:35 5.6 3.3 -111.4 00:00 0.0
18/01 09:34 5.6 3.3 -111.4 00:00 0.0
18/01 09:33 5.6 3.3 -111.4 00:00 0.0
18/01 09:32 5.6 3.3 -111.4 00:00 0.0
18/01 09:31 5.6 3.3 -111.4 00:00 0.0
18/01 09:30 5.6 3.3 -111.4 00:00 0.0
18/01 09:29 5.4 3 -111.5 00:00 0.0
18/01 09:28 5.4 3 -111.5 00:00 0.0
18/01 09:27 5.6 3.3 -111.4 00:00 0.0
18/01 09:26 5.6 3.2 -111.4 00:00 0.0
18/01 09:25 5.6 3.2 -111.4 00:00 0.0
18/01 09:24 5.6 3.2 -111.4 00:00 0.0
18/01 09:23 5.6 3.2 -111.4 00:00 0.0
18/01 09:22 5.4 3 -111.5 00:00 0.0
18/01 09:21 5.4 3 -111.5 00:00 0.0
18/01 09:20 5.4 3 -111.5 00:00 0.0
18/01 09:19 5.4 3 -111.5 00:00 0.0
18/01 09:18 5.4 3 -111.5 00:00 0.0
18/01 09:17 5.4 3.1 -111.5 00:00 0.0
18/01 09:16 5.2 2.9 -111.5 00:00 0.0
18/01 09:15 5.2 2.9 -111.5 00:00 0.0
18/01 09:14 5.0 2.7 -111.5 00:00 0.0
18/01 09:13 5.0 2.7 -111.5 00:00 0.0
18/01 09:12 4.8 2.6 -111.5 00:00 0.0
18/01 09:11 4.8 2.6 -111.5 00:00 0.0
18/01 09:10 4.6 2.4 -111.5 00:00 0.0
18/01 09:09 4.6 2.4 -111.5 00:00 0.0
18/01 09:08 4.4 2.1 -111.6 00:00 0.0
18/01 09:07 4.4 2.1 -111.6 00:00 0.0
18/01 09:06 4.2 1.8 -111.6 00:00 0.0
18/01 09:05 4.2 1.8 -111.6 00:00 0.0
18/01 09:04 4.0 1.5 -111.6 00:00 0.0
18/01 09:03 4.0 1.5 -111.6 00:00 0.0
18/01 09:02 4.0 1.5 -111.6 00:00 0.0
18/01 09:01 3.8 1.3 -111.6 00:00 0.0
18/01 09:00 3.8 1.2 -111.6 00:00 0.0
18/01 08:59 3.6 1 -111.6 00:00 0.0
18/01 08:58 3.6 1 -111.6 00:00 0.0
18/01 08:57 3.6 1 -111.6 00:00 0.0
18/01 08:56 3.6 1 -111.6 00:00 0.0
18/01 08:55 3.4 0.8 -111.7 00:00 0.0
18/01 08:54 3.4 0.9 -111.7 00:00 0.0
18/01 08:53 3.4 0.9 -111.7 00:00 0.0
18/01 08:52 3.4 0.9 -111.7 00:00 0.0
18/01 08:51 3.4 1 -111.7 00:00 0.0
18/01 08:50 3.4 1 -111.7 00:00 0.0
18/01 08:49 3.4 1.1 -111.7 00:00 0.0
18/01 08:48 3.4 1.1 -111.7 00:00 0.0
18/01 08:47 3.6 1.4 -111.6 00:00 0.0
18/01 08:46 3.6 1.4 -111.6 00:00 0.0
18/01 08:45 3.6 1.4 -111.6 00:00 0.0
18/01 08:44 3.6 1.4 -111.6 00:00 0.0
18/01 08:43 3.6 1.4 -111.6 00:00 0.0
18/01 08:42 3.4 1.1 -111.7 00:00 0.0
18/01 08:41 3.4 1 -111.7 00:00 0.0
18/01 08:40 3.4 1 -111.7 00:00 0.0
18/01 08:39 3.4 1 -111.7 00:00 0.0
18/01 08:38 3.4 1 -111.7 00:00 0.0
18/01 08:37 3.4 1 -111.7 00:00 0.0
18/01 08:36 3.4 1 -111.7 00:00 0.0
18/01 08:35 3.4 1 -111.7 00:00 0.0
18/01 08:34 3.4 1 -111.7 00:00 0.0
18/01 08:33 3.4 1 -111.7 00:00 0.0
18/01 08:32 3.4 1 -111.7 00:00 0.0
18/01 08:31 3.4 1 -111.7 00:00 0.0
18/01 08:30 3.4 0.9 -111.7 00:00 0.0
18/01 08:29 3.6 1.2 -111.6 00:00 0.0
18/01 08:28 3.6 1.2 -111.6 00:00 0.0
18/01 08:27 3.6 1.2 -111.6 00:00 0.0
18/01 08:26 3.6 1.2 -111.6 00:00 0.0
18/01 08:25 3.6 1.2 -111.6 00:00 0.0
18/01 08:24 3.6 1.2 -111.6 00:00 0.0
18/01 08:23 3.6 1.2 -111.6 00:00 0.0
18/01 08:22 3.6 1.2 -111.6 00:00 0.0
18/01 08:21 3.6 1.2 -111.6 00:00 0.0
18/01 08:20 3.6 1.3 -111.6 00:00 0.0
18/01 08:19 3.6 1.3 -111.6 00:00 0.0
18/01 08:18 3.6 1.3 -111.6 00:00 0.0
18/01 08:17 3.6 1.3 -111.6 00:00 0.0
18/01 08:16 3.6 1.3 -111.6 00:00 0.0
18/01 08:15 3.8 1.6 -111.6 00:00 0.0
18/01 08:14 3.8 1.6 -111.6 00:00 0.0
18/01 08:13 3.8 1.7 -111.6 00:00 0.0
18/01 08:12 3.8 1.8 -111.6 00:00 0.0
18/01 08:11 3.8 1.9 -111.6 00:00 0.0
18/01 08:10 3.8 2 -111.6 00:00 0.0
18/01 08:09 3.8 2.1 -111.6 00:00 0.0
18/01 08:08 3.8 2.2 -111.6 00:00 0.0
18/01 08:07 4.0 2.5 -111.6 00:00 0.0
18/01 08:06 4.0 2.6 -111.6 00:00 0.0
18/01 08:05 3.8 2.5 -111.6 00:00 0.0
18/01 08:04 3.8 2.5 -111.6 00:00 0.0
18/01 08:03 3.8 2.6 -111.6 00:00 0.0
18/01 08:02 3.8 2.6 -111.6 00:00 0.0
18/01 08:01 3.8 2.6 -111.6 00:00 0.0
18/01 08:00 3.8 2.6 -111.6 00:00 0.0
18/01 07:59 3.8 2.6 -111.6 00:00 0.0
18/01 07:58 3.8 2.6 -111.6 00:00 0.0
18/01 07:57 3.8 2.6 -111.6 00:00 0.0
18/01 07:56 3.8 2.5 -111.6 00:00 0.0
18/01 07:55 3.8 2.5 -111.6 00:00 0.0
18/01 07:54 3.8 2.5 -111.6 00:00 0.0
18/01 07:53 3.8 2.5 -111.6 00:00 0.0
18/01 07:52 3.8 2.5 -111.6 00:00 0.0
18/01 07:51 3.8 2.5 -111.6 00:00 0.0
18/01 07:50 3.8 2.5 -111.6 00:00 0.0
18/01 07:49 3.8 2.6 -111.6 00:00 0.0
18/01 07:48 3.8 2.6 -111.6 00:00 0.0
18/01 07:47 3.6 2.4 -111.6 00:00 0.0
18/01 07:46 3.8 2.6 -111.6 00:00 0.0
18/01 07:45 3.8 2.6 -111.6 00:00 0.0
18/01 07:44 3.6 2.4 -111.6 00:00 0.0
18/01 07:43 3.6 2.4 -111.6 00:00 0.0
18/01 07:42 3.6 2.4 -111.6 00:00 0.0
18/01 07:41 3.6 2.4 -111.6 00:00 0.0
18/01 07:40 3.6 2.4 -111.6 00:00 0.0
18/01 07:39 3.8 2.6 -111.6 00:00 0.0
18/01 07:38 3.6 2.3 -111.6 00:00 0.0
18/01 07:37 3.6 2.3 -111.6 00:00 0.0
18/01 07:36 3.6 2.2 -111.6 00:00 0.0
18/01 07:35 3.6 2.1 -111.6 00:00 0.0
18/01 07:34 3.6 2.1 -111.6 00:00 0.0
18/01 07:33 3.6 2.1 -111.6 00:00 0.0
18/01 07:32 3.8 2.3 -111.6 00:00 0.0
18/01 07:31 3.6 2 -111.6 00:00 0.0
18/01 07:30 3.8 2.2 -111.6 00:00 0.0
18/01 07:29 3.8 2.2 -111.6 00:00 0.0
18/01 07:28 3.8 2.2 -111.6 00:00 0.0
18/01 07:27 3.8 2.2 -111.6 00:00 0.0
18/01 07:26 3.8 2.2 -111.6 00:00 0.0
18/01 07:25 4.0 2.5 -111.6 00:00 0.0
18/01 07:24 4.0 2.6 -111.6 00:00 0.0
18/01 07:23 4.0 2.6 -111.6 00:00 0.0
18/01 07:22 4.0 2.6 -111.6 00:00 0.0
18/01 07:21 4.0 2.7 -111.6 00:00 0.0
18/01 07:20 4.0 2.7 -111.6 00:00 0.0
18/01 07:19 4.0 2.8 -111.6 00:00 0.0
18/01 07:18 4.0 2.8 -111.6 00:00 0.0
18/01 07:17 4.0 2.8 -111.6 00:00 0.0
18/01 07:16 4.0 2.8 -111.6 00:00 0.0
18/01 07:15 4.0 2.9 -111.6 00:00 0.0
18/01 07:14 4.0 2.9 -111.6 00:00 0.0
18/01 07:13 4.0 2.9 -111.6 00:00 0.0
18/01 07:12 4.0 2.9 -111.6 00:00 0.0
18/01 07:11 4.0 2.9 -111.6 00:00 0.0
18/01 07:10 4.0 2.9 -111.6 00:00 0.0
18/01 07:09 4.2 3.2 -111.6 00:00 0.0
18/01 07:08 4.2 3.3 -111.6 00:00 0.0
18/01 07:07 4.2 3.3 -111.6 00:00 0.0
18/01 07:06 4.2 3.3 -111.6 00:00 0.0
18/01 07:05 4.2 3.4 -111.6 00:00 0.0
18/01 07:04 4.2 3.5 -111.6 00:00 0.0
18/01 07:03 4.2 3.6 -111.6 00:00 0.0
18/01 07:02 4.2 3.6 -111.6 00:00 0.0
18/01 07:01 4.2 3.7 -111.6 00:00 0.0
18/01 07:00 4.2 3.7 -111.6 00:00 0.0
18/01 06:59 4.2 3.8 -111.6 00:00 0.0
18/01 06:58 4.2 3.8 -111.6 00:00 0.0
18/01 06:57 4.2 3.8 -111.6 00:00 0.0
18/01 06:56 4.2 3.8 -111.6 00:00 0.0
18/01 06:55 4.2 3.8 -111.6 00:00 0.0
18/01 06:54 4.4 4 -111.6 00:00 0.0
18/01 06:53 4.4 4 -111.6 00:00 0.0
18/01 06:52 4.4 3.9 -111.6 00:00 0.0
18/01 06:51 4.4 3.9 -111.6 00:00 0.0
18/01 06:50 4.4 3.9 -111.6 00:00 0.0
18/01 06:49 4.4 3.9 -111.6 00:00 0.0
18/01 06:48 4.4 3.8 -111.6 00:00 0.0
18/01 06:47 4.4 3.8 -111.6 00:00 0.0
18/01 06:46 4.4 3.7 -111.6 00:00 0.0
18/01 06:45 4.4 3.7 -111.6 00:00 0.0
18/01 06:44 4.4 3.7 -111.6 00:00 0.0
18/01 06:43 4.4 3.6 -111.6 00:00 0.0
18/01 06:42 4.6 3.8 -111.5 00:00 0.0
18/01 06:41 4.6 3.8 -111.5 00:00 0.0
18/01 06:40 4.6 3.7 -111.5 00:00 0.0
18/01 06:39 4.6 3.7 -111.5 00:00 0.0
18/01 06:38 4.8 3.9 -111.5 00:00 0.0
18/01 06:37 4.8 3.9 -111.5 00:00 0.0
18/01 06:36 4.8 3.9 -111.5 00:00 0.0
18/01 06:35 4.8 3.9 -111.5 00:00 0.0
18/01 06:34 4.8 3.9 -111.5 00:00 0.0
18/01 06:33 4.8 3.9 -111.5 00:00 0.0
18/01 06:32 4.8 3.9 -111.5 00:00 0.0
18/01 06:31 5.0 4.2 -111.5 00:00 0.0
18/01 06:30 5.0 4.2 -111.5 00:00 0.0
18/01 06:29 5.0 4.2 -111.5 00:00 0.0
18/01 06:28 5.0 4.2 -111.5 00:00 0.0
18/01 06:27 5.0 4.2 -111.5 00:00 0.0
18/01 06:26 5.0 4.2 -111.5 00:00 0.0
18/01 06:25 5.0 4.2 -111.5 00:00 0.0
18/01 06:24 5.0 4.3 -111.5 00:00 0.0
18/01 06:23 5.0 4.3 -111.5 00:00 0.0
18/01 06:22 5.0 4.2 -111.5 00:00 0.0



    Load Time 0.022998 seconds